createdAt,value
2018-01-26T00:01:03.367Z,82.70
2018-01-26T00:03:30.928Z,82.80
2018-01-26T00:05:58.484Z,82.20
2018-01-26T00:08:26.057Z,82.40
2018-01-26T00:10:53.592Z,82.80
2018-01-26T00:13:21.890Z,82.10
2018-01-26T00:15:49.461Z,82.10
2018-01-26T00:18:17.023Z,82.60
2018-01-26T00:20:44.603Z,82.70
2018-01-26T00:23:12.154Z,82.90
2018-01-26T00:25:39.726Z,82.30
2018-01-26T00:28:07.274Z,81.80
2018-01-26T00:30:34.851Z,81.70
2018-01-26T00:33:02.415Z,81.90
2018-01-26T00:35:29.974Z,82.50
2018-01-26T00:37:57.535Z,82.80
2018-01-26T00:40:25.090Z,83.20
2018-01-26T00:42:52.675Z,83.00
2018-01-26T00:45:20.999Z,82.50
2018-01-26T00:47:48.550Z,82.50
2018-01-26T00:50:16.115Z,82.60
2018-01-26T00:52:43.669Z,82.90
2018-01-26T00:55:11.222Z,83.00
2018-01-26T00:57:38.789Z,83.20
2018-01-26T01:00:06.352Z,83.80
2018-01-26T01:02:33.906Z,84.00
2018-01-26T01:05:01.481Z,83.20
2018-01-26T01:07:29.026Z,83.60
2018-01-26T01:09:56.593Z,83.90
2018-01-26T01:12:24.148Z,83.80
2018-01-26T01:14:51.727Z,83.80
2018-01-26T01:17:19.268Z,83.90
2018-01-26T01:19:46.824Z,84.10
2018-01-26T01:22:14.358Z,84.40
2018-01-26T01:24:41.915Z,84.40
2018-01-26T01:27:10.225Z,84.10
2018-01-26T01:29:37.768Z,84.10
2018-01-26T01:32:05.322Z,84.20
2018-01-26T01:34:32.869Z,84.20
2018-01-26T01:37:00.447Z,84.30
2018-01-26T01:39:27.983Z,84.20
2018-01-26T01:41:56.300Z,84.30
2018-01-26T01:44:23.850Z,84.30
2018-01-26T01:46:51.425Z,84.60
2018-01-26T01:49:18.968Z,84.40
2018-01-26T01:51:46.517Z,84.00
2018-01-26T01:54:14.094Z,84.60
2018-01-26T01:56:41.626Z,84.80
2018-01-26T01:59:09.193Z,85.80
2018-01-26T02:01:36.727Z,86.00
2018-01-26T02:04:05.046Z,85.20
2018-01-26T02:06:32.597Z,85.20
2018-01-26T02:09:00.160Z,84.90
2018-01-26T02:11:27.708Z,84.00
2018-01-26T02:13:55.281Z,84.20
2018-01-26T02:16:22.814Z,84.20
2018-01-26T02:18:51.129Z,83.80
2018-01-26T02:21:18.719Z,84.00
2018-01-26T02:23:46.279Z,83.80
2018-01-26T02:26:13.825Z,83.40
2018-01-26T02:28:41.410Z,83.70
2018-01-26T02:31:09.721Z,83.60
2018-01-26T02:33:37.283Z,83.60
2018-01-26T02:36:04.855Z,83.80
2018-01-26T02:38:32.415Z,83.50
2018-01-26T02:40:59.960Z,83.20
2018-01-26T02:43:27.543Z,83.00
2018-01-26T02:45:55.098Z,83.40
2018-01-26T02:48:22.647Z,83.30
2018-01-26T02:50:50.209Z,83.50
2018-01-26T02:53:17.761Z,83.50
2018-01-26T02:55:45.300Z,83.80
2018-01-26T02:58:12.887Z,84.10
2018-01-26T03:00:40.442Z,84.20
2018-01-26T03:03:07.994Z,84.30
2018-01-26T03:05:35.608Z,84.50
2018-01-26T03:08:03.171Z,84.70
2018-01-26T03:10:30.706Z,84.40
2018-01-26T03:12:58.270Z,84.30
2018-01-26T03:15:25.833Z,84.20
2018-01-26T03:17:53.382Z,84.30
2018-01-26T03:20:20.954Z,84.40
2018-01-26T03:22:48.505Z,84.70
2018-01-26T03:25:16.077Z,84.30
2018-01-26T03:27:43.611Z,84.00
2018-01-26T03:30:11.160Z,84.40
2018-01-26T03:32:38.739Z,84.80
2018-01-26T03:35:06.289Z,84.50
2018-01-26T03:37:33.843Z,84.30
2018-01-26T03:40:01.375Z,84.10
2018-01-26T03:42:29.700Z,84.10
2018-01-26T03:44:57.240Z,84.20
2018-01-26T03:47:24.819Z,84.80
2018-01-26T03:49:52.354Z,84.10
2018-01-26T03:55:12.875Z,84.50
2018-01-26T03:57:40.449Z,84.50
2018-01-26T04:00:07.992Z,84.80
2018-01-26T04:02:35.553Z,85.10
2018-01-26T04:05:03.107Z,84.30
2018-01-26T04:07:30.669Z,84.20
2018-01-26T04:09:58.223Z,83.90
2018-01-26T04:12:25.784Z,83.90
2018-01-26T04:14:53.349Z,84.60
2018-01-26T04:17:20.892Z,84.50
2018-01-26T04:19:48.455Z,84.70
2018-01-26T04:22:16.021Z,85.00
2018-01-26T04:24:43.569Z,84.80
2018-01-26T04:27:11.133Z,84.60
2018-01-26T04:29:38.688Z,85.00
2018-01-26T04:32:06.266Z,84.60
2018-01-26T04:34:33.835Z,84.30
2018-01-26T04:37:01.402Z,84.60
2018-01-26T04:39:28.945Z,84.80
2018-01-26T04:41:56.528Z,84.70
2018-01-26T04:44:24.067Z,84.60
2018-01-26T04:46:51.617Z,84.80
2018-01-26T04:49:19.181Z,84.40
2018-01-26T04:51:46.754Z,84.80
2018-01-26T04:54:14.325Z,84.80
2018-01-26T04:56:41.887Z,84.80
2018-01-26T04:59:09.448Z,84.80
2018-01-26T05:01:37.001Z,84.70
2018-01-26T05:04:04.589Z,84.50
2018-01-26T05:06:32.911Z,84.20
2018-01-26T05:09:00.472Z,84.10
2018-01-26T05:11:28.023Z,84.10
2018-01-26T05:13:55.559Z,84.10
2018-01-26T05:16:23.891Z,84.70
2018-01-26T05:18:51.442Z,84.60
2018-01-26T05:21:19.004Z,84.80
2018-01-26T05:23:46.568Z,84.90
2018-01-26T05:26:14.127Z,84.60
2018-01-26T05:28:41.672Z,84.30
2018-01-26T05:31:09.223Z,84.20
2018-01-26T05:33:36.790Z,84.20
2018-01-26T05:36:04.336Z,84.10
2018-01-26T05:38:31.903Z,84.30
2018-01-26T05:40:59.448Z,84.40
2018-01-26T05:43:27.021Z,84.40
2018-01-26T05:45:54.555Z,84.60
2018-01-26T05:48:22.119Z,84.00
2018-01-26T05:50:49.665Z,84.90
2018-01-26T05:53:17.991Z,85.50
2018-01-26T05:55:45.557Z,85.50
2018-01-26T05:58:13.091Z,84.80
2018-01-26T06:00:40.655Z,85.30
2018-01-26T06:03:08.217Z,84.70
2018-01-26T06:05:35.853Z,84.20
2018-01-26T06:08:03.390Z,84.70
2018-01-26T06:10:31.739Z,84.70
2018-01-26T06:12:59.301Z,84.70
2018-01-26T06:15:26.852Z,84.80
2018-01-26T06:17:54.438Z,84.80
2018-01-26T06:20:21.988Z,85.10
2018-01-26T06:22:49.543Z,85.80
2018-01-26T06:25:17.087Z,84.80
2018-01-26T06:27:44.673Z,84.40
2018-01-26T06:30:12.230Z,84.60
2018-01-26T06:32:39.782Z,85.00
2018-01-26T06:35:07.343Z,84.70
2018-01-26T06:37:34.921Z,84.70
2018-01-26T06:40:03.247Z,85.10
2018-01-26T06:42:30.815Z,85.10
2018-01-26T06:44:58.380Z,85.20
2018-01-26T06:47:25.946Z,85.40
2018-01-26T06:49:53.527Z,85.60
2018-01-26T06:52:21.100Z,85.50
2018-01-26T06:54:49.417Z,85.50
2018-01-26T06:57:16.959Z,85.40
2018-01-26T06:59:44.539Z,85.60
2018-01-26T07:02:12.089Z,86.00
2018-01-26T07:04:39.660Z,86.20
2018-01-26T07:07:07.239Z,86.00
2018-01-26T07:09:34.778Z,86.00
2018-01-26T07:12:02.337Z,86.10
2018-01-26T07:14:29.899Z,86.00
2018-01-26T07:16:57.479Z,85.80
2018-01-26T07:19:25.019Z,86.40
2018-01-26T07:21:52.582Z,86.20
2018-01-26T07:24:20.138Z,86.50
2018-01-26T07:26:47.699Z,86.40
2018-01-26T07:29:15.257Z,86.50
2018-01-26T07:31:42.865Z,87.20
2018-01-26T07:34:11.205Z,86.90
2018-01-26T07:36:38.766Z,86.90
2018-01-26T07:39:06.646Z,87.00
2018-01-26T07:41:34.179Z,86.60
2018-01-26T07:44:01.745Z,86.90
2018-01-26T07:46:29.299Z,87.10
2018-01-26T07:48:56.864Z,86.80
2018-01-26T07:51:24.421Z,87.10
2018-01-26T07:53:52.113Z,87.20
2018-01-26T07:56:19.686Z,87.00
2018-01-26T07:58:47.248Z,86.90
2018-01-26T08:01:15.602Z,87.70
2018-01-26T08:03:43.168Z,87.10
2018-01-26T08:06:10.725Z,87.50
2018-01-26T08:08:38.304Z,87.60
2018-01-26T08:11:06.653Z,88.10
2018-01-26T08:13:34.220Z,88.00
2018-01-26T08:16:01.788Z,87.50
2018-01-26T08:18:29.366Z,87.70
2018-01-26T08:20:57.680Z,88.40
2018-01-26T08:23:25.252Z,88.30
2018-01-26T08:25:52.788Z,88.40
2018-01-26T08:28:20.358Z,88.10
2018-01-26T08:30:47.923Z,88.30
2018-01-26T08:33:15.479Z,88.80
2018-01-26T08:35:43.038Z,88.40
2018-01-26T08:38:10.607Z,87.70
2018-01-26T08:40:38.153Z,88.10
2018-01-26T08:43:05.718Z,88.20
2018-01-26T08:45:33.289Z,88.20
2018-01-26T08:48:00.823Z,88.80
2018-01-26T08:50:28.405Z,89.60
2018-01-26T08:52:55.942Z,89.70
2018-01-26T08:55:25.423Z,89.30
2018-01-26T08:57:53.730Z,87.10
2018-01-26T09:00:21.287Z,87.10
2018-01-26T09:02:48.844Z,86.40
2018-01-26T09:05:16.380Z,84.80
2018-01-26T09:07:46.152Z,83.90
2018-01-26T09:10:13.710Z,83.90
2018-01-26T09:12:41.269Z,83.30
2018-01-26T09:15:08.813Z,82.30
2018-01-26T09:17:36.385Z,82.40
2018-01-26T09:20:03.919Z,81.30
2018-01-26T09:22:31.481Z,81.40
2018-01-26T09:24:59.043Z,81.30
2018-01-26T09:27:26.612Z,81.50
2018-01-26T09:29:54.191Z,81.70
2018-01-26T09:32:21.730Z,81.30
2018-01-26T09:34:49.279Z,81.30
2018-01-26T09:37:16.821Z,81.60
2018-01-26T09:39:44.404Z,82.20
2018-01-26T09:42:12.785Z,82.60
2018-01-26T09:44:40.334Z,83.10
2018-01-26T09:47:07.877Z,82.80
2018-01-26T09:49:35.449Z,83.10
2018-01-26T09:52:02.987Z,83.80
2018-01-26T09:54:31.310Z,83.80
2018-01-26T09:56:58.883Z,83.80
2018-01-26T09:59:26.433Z,84.10
2018-01-26T10:01:54.002Z,83.30
2018-01-26T10:04:21.539Z,82.70
2018-01-26T10:06:49.091Z,82.60
2018-01-26T10:09:16.652Z,83.70
2018-01-26T10:11:44.206Z,84.30
2018-01-26T10:14:11.758Z,83.30
2018-01-26T10:16:39.329Z,83.70
2018-01-26T10:19:06.925Z,83.00
2018-01-26T10:21:34.457Z,83.10
2018-01-26T10:24:02.012Z,83.10
2018-01-26T10:26:29.550Z,83.40
2018-01-26T10:28:57.108Z,83.70
2018-01-26T10:31:24.672Z,84.00
2018-01-26T10:33:52.259Z,82.50
2018-01-26T10:36:19.817Z,82.80
2018-01-26T10:38:47.374Z,82.00
2018-01-26T10:41:14.917Z,82.60
2018-01-26T10:43:42.473Z,81.40
2018-01-26T10:46:10.061Z,82.30
2018-01-26T10:48:37.607Z,82.40
2018-01-26T10:51:05.161Z,82.10
2018-01-26T10:53:32.694Z,82.10
2018-01-26T10:56:01.017Z,81.10
2018-01-26T10:58:28.551Z,81.10
2018-01-26T11:00:56.103Z,81.10
2018-01-26T11:03:23.652Z,79.30
2018-01-26T11:05:51.211Z,78.80
2018-01-26T11:08:19.530Z,79.20
2018-01-26T11:10:47.092Z,79.20
2018-01-26T11:13:14.670Z,78.20
2018-01-26T11:15:42.239Z,78.70
2018-01-26T11:18:09.809Z,78.90
2018-01-26T11:20:38.139Z,77.70
2018-01-26T11:23:05.705Z,77.70
2018-01-26T11:25:33.271Z,77.10
2018-01-26T11:28:00.827Z,76.70
2018-01-26T11:30:28.377Z,76.50
2018-01-26T11:32:55.919Z,75.80
2018-01-26T11:35:23.478Z,73.90
2018-01-26T11:37:51.019Z,72.20
2018-01-26T11:40:18.593Z,70.90
2018-01-26T11:42:46.161Z,70.40
2018-01-26T11:45:13.743Z,67.00
2018-01-26T11:47:41.297Z,65.20
2018-01-26T11:50:08.851Z,62.90
2018-01-26T11:52:36.401Z,60.20
2018-01-26T11:55:03.960Z,59.90
2018-01-26T11:57:31.513Z,61.60
2018-01-26T11:59:59.074Z,60.00
2018-01-26T12:02:26.644Z,61.70
2018-01-26T12:04:54.199Z,62.70
2018-01-26T12:07:21.769Z,62.70
2018-01-26T12:09:49.335Z,61.50
2018-01-26T12:12:16.916Z,60.40
2018-01-26T12:14:44.481Z,62.00
2018-01-26T12:17:12.062Z,61.20
2018-01-26T12:19:40.397Z,59.90
2018-01-26T12:22:07.952Z,59.90
2018-01-26T12:24:35.519Z,62.00
2018-01-26T12:27:03.073Z,57.90
2018-01-26T12:29:30.641Z,58.20
2018-01-26T12:31:58.230Z,57.60
2018-01-26T12:34:26.587Z,56.30
2018-01-26T12:36:54.143Z,56.30
2018-01-26T12:39:21.717Z,54.30
2018-01-26T12:41:49.268Z,53.70
2018-01-26T12:44:16.849Z,54.70
2018-01-26T12:46:45.161Z,54.70
2018-01-26T12:49:12.729Z,54.60
2018-01-26T12:51:40.319Z,55.10
2018-01-26T12:54:07.892Z,55.30
2018-01-26T12:56:35.464Z,55.60
2018-01-26T12:59:03.788Z,52.10
2018-01-26T13:01:31.353Z,52.10
2018-01-26T13:03:58.927Z,50.50
2018-01-26T13:06:26.510Z,51.80
2018-01-26T13:08:54.051Z,50.40
2018-01-26T13:11:21.609Z,49.20
2018-01-26T13:13:49.185Z,50.40
2018-01-26T13:16:16.745Z,51.80
2018-01-26T13:18:44.331Z,49.90
2018-01-26T13:21:12.639Z,50.20
2018-01-26T13:23:40.210Z,50.20
2018-01-26T13:26:07.769Z,49.90
2018-01-26T13:28:35.322Z,51.50
2018-01-26T13:31:02.895Z,50.60
2018-01-26T13:33:30.467Z,51.00
2018-01-26T13:35:58.038Z,51.50
2018-01-26T13:38:25.616Z,52.00
2018-01-26T13:40:53.938Z,49.60
2018-01-26T13:43:21.500Z,49.60
2018-01-26T13:45:49.066Z,48.70
2018-01-26T13:48:16.625Z,48.30
2018-01-26T13:50:44.197Z,47.10
2018-01-26T13:53:11.766Z,48.00
2018-01-26T13:55:39.330Z,49.50
2018-01-26T13:58:06.879Z,49.50
2018-01-26T14:00:34.475Z,50.10
2018-01-26T14:03:02.818Z,52.30
2018-01-26T14:05:30.391Z,52.40
2018-01-26T14:07:59.463Z,52.90
2018-01-26T14:10:26.998Z,53.00
2018-01-26T14:12:54.587Z,52.20
2018-01-26T14:15:22.160Z,56.70
2018-01-26T14:17:49.800Z,55.40
2018-01-26T14:20:17.362Z,54.80
2018-01-26T14:22:44.997Z,52.10
2018-01-26T14:25:12.565Z,51.30
2018-01-26T14:27:40.135Z,53.10
2018-01-26T14:30:07.696Z,52.10
2018-01-26T14:32:35.260Z,53.30
2018-01-26T14:35:02.825Z,53.90
2018-01-26T14:37:30.385Z,53.50
2018-01-26T14:39:57.979Z,57.20
2018-01-26T14:42:26.322Z,57.00
2018-01-26T14:44:53.967Z,57.00
2018-01-26T14:47:21.513Z,56.30
2018-01-26T14:49:49.068Z,54.40
2018-01-26T14:52:16.626Z,53.60
2018-01-26T14:54:44.173Z,55.40
2018-01-26T14:57:11.727Z,59.50
2018-01-26T14:59:40.041Z,57.50
2018-01-26T15:02:07.649Z,57.50
2018-01-26T15:04:35.981Z,58.60
2018-01-26T15:07:03.562Z,58.60
2018-01-26T15:09:31.103Z,60.60
2018-01-26T15:11:58.646Z,60.10
2018-01-26T15:14:26.268Z,60.60
2018-01-26T15:16:54.601Z,60.50
2018-01-26T15:19:22.204Z,60.50
2018-01-26T15:21:50.538Z,62.60
2018-01-26T15:24:18.124Z,62.50
2018-01-26T15:26:45.699Z,64.40
2018-01-26T15:29:13.269Z,67.10
2018-01-26T15:31:41.597Z,68.30
2018-01-26T15:34:09.166Z,68.30
2018-01-26T15:36:36.730Z,69.30
2018-01-26T15:39:04.303Z,69.00
2018-01-26T15:41:31.888Z,68.50
2018-01-26T15:44:00.214Z,69.10
2018-01-26T15:46:27.795Z,69.10
2018-01-26T15:48:55.357Z,70.30
2018-01-26T15:51:23.127Z,71.40
2018-01-26T15:53:50.677Z,71.50
2018-01-26T15:56:18.245Z,70.80
2018-01-26T15:58:45.783Z,71.60
2018-01-26T16:01:13.328Z,72.60
2018-01-26T16:03:40.913Z,72.60
2018-01-26T16:06:08.550Z,72.20
2018-01-26T16:08:36.214Z,72.50
2018-01-26T16:11:03.772Z,72.90
2018-01-26T16:13:31.332Z,72.40
2018-01-26T16:16:03.902Z,73.00
2018-01-26T16:18:31.455Z,73.40
2018-01-26T16:20:59.759Z,73.80
2018-01-26T16:23:27.351Z,73.50
2018-01-26T16:25:54.908Z,73.50
2018-01-26T16:28:23.229Z,73.70
2018-01-26T16:30:50.795Z,73.70
2018-01-26T16:33:19.151Z,73.30
2018-01-26T16:35:47.475Z,73.90
2018-01-26T16:38:15.022Z,74.00
2018-01-26T16:40:42.584Z,74.20
2018-01-26T16:43:10.151Z,75.00
2018-01-26T16:45:37.725Z,75.10
2018-01-26T16:48:05.288Z,75.40
2018-01-26T16:50:32.842Z,75.20
2018-01-26T16:53:00.405Z,74.60
2018-01-26T16:55:27.948Z,74.90
2018-01-26T16:57:55.527Z,74.90
2018-01-26T17:00:23.092Z,75.30
2018-01-26T17:02:50.661Z,75.80
2018-01-26T17:05:18.213Z,75.70
2018-01-26T17:07:45.770Z,76.40
2018-01-26T17:10:13.332Z,75.60
2018-01-26T17:12:40.898Z,76.00
2018-01-26T17:15:08.471Z,76.10
2018-01-26T17:17:36.785Z,76.90
2018-01-26T17:20:04.357Z,76.90
2018-01-26T17:22:31.891Z,77.20
2018-01-26T17:24:59.443Z,78.00
2018-01-26T17:27:27.003Z,78.80
2018-01-26T17:29:54.572Z,78.40
2018-01-26T17:32:22.165Z,78.40
2018-01-26T17:34:49.680Z,78.30
2018-01-26T17:37:17.242Z,78.70
2018-01-26T17:39:44.780Z,78.90
2018-01-26T17:42:13.123Z,79.10
2018-01-26T17:44:40.681Z,79.10
2018-01-26T17:47:08.258Z,78.60
2018-01-26T17:49:35.823Z,78.90
2018-01-26T17:52:03.389Z,79.30
2018-01-26T17:54:31.699Z,79.60
2018-01-26T17:56:59.277Z,79.60
2018-01-26T17:59:26.839Z,79.80
2018-01-26T18:01:54.388Z,80.20
2018-01-26T18:04:21.951Z,80.40
2018-01-26T18:06:49.491Z,81.10
2018-01-26T18:09:17.065Z,80.70
2018-01-26T18:11:44.628Z,80.10
2018-01-26T18:14:13.001Z,80.70
2018-01-26T18:16:40.563Z,80.70
2018-01-26T18:19:08.859Z,80.00
2018-01-26T18:21:36.400Z,80.40
2018-01-26T18:24:03.948Z,80.40
2018-01-26T18:26:31.556Z,80.90
2018-01-26T18:28:59.085Z,80.60
2018-01-26T18:31:26.653Z,80.30
2018-01-26T18:33:54.251Z,80.10
2018-01-26T18:36:21.810Z,80.60
2018-01-26T18:38:49.347Z,81.60
2018-01-26T18:41:16.908Z,82.30
2018-01-26T18:43:44.458Z,81.50
2018-01-26T18:46:12.035Z,80.90
2018-01-26T18:48:39.609Z,81.60
2018-01-26T18:51:07.150Z,81.20
2018-01-26T18:53:34.716Z,80.90
2018-01-26T18:56:02.281Z,81.10
2018-01-26T18:58:29.861Z,81.50
2018-01-26T19:00:58.198Z,80.90
2018-01-26T19:03:25.799Z,80.90
2018-01-26T19:05:54.113Z,81.60
2018-01-26T19:08:21.689Z,81.60
2018-01-26T19:10:49.236Z,82.00
2018-01-26T19:13:18.136Z,81.60
2018-01-26T19:15:46.533Z,81.70
2018-01-26T19:18:14.067Z,81.70
2018-01-26T19:20:41.642Z,81.80
2018-01-26T19:23:09.231Z,81.70
2018-01-26T19:25:36.801Z,81.80
2018-01-26T19:28:05.151Z,82.10
2018-01-26T19:30:32.709Z,82.00
2018-01-26T19:33:00.277Z,82.90
2018-01-26T19:35:27.837Z,82.40
2018-01-26T19:37:55.395Z,82.40
2018-01-26T19:40:22.940Z,82.60
2018-01-26T19:42:50.619Z,82.20
2018-01-26T19:45:18.178Z,81.80
2018-01-26T19:47:45.755Z,81.40
2018-01-26T19:50:14.069Z,82.00
2018-01-26T19:52:41.659Z,82.00
2018-01-26T19:55:09.213Z,81.80
2018-01-26T19:57:36.815Z,82.30
2018-01-26T20:00:05.118Z,83.10
2018-01-26T20:02:32.670Z,83.20
2018-01-26T20:05:18.192Z,84.00
2018-01-26T20:07:54.622Z,83.30
2018-01-26T20:10:22.189Z,82.30
2018-01-26T20:12:55.480Z,82.60
2018-01-26T20:15:23.049Z,82.40
2018-01-26T20:17:50.583Z,81.40
2018-01-26T20:20:18.937Z,82.30
2018-01-26T20:22:46.475Z,82.20
2018-01-26T20:25:14.053Z,82.50
2018-01-26T20:27:41.619Z,82.80
2018-01-26T20:30:09.941Z,82.90
2018-01-26T20:32:37.527Z,83.50
2018-01-26T20:35:05.275Z,81.70
2018-01-26T20:37:32.846Z,81.00
2018-01-26T20:40:00.411Z,81.40
2018-01-26T20:42:27.995Z,80.70
2018-01-26T20:44:55.549Z,82.10
2018-01-26T20:47:23.106Z,82.80
2018-01-26T20:49:51.425Z,82.30
2018-01-26T20:52:18.963Z,82.40
2018-01-26T20:54:47.302Z,83.90
2018-01-26T20:57:14.842Z,83.90
2018-01-26T20:59:42.396Z,84.90
2018-01-26T21:02:10.810Z,82.70
2018-01-26T21:04:38.386Z,82.00
2018-01-26T21:07:05.947Z,82.60
2018-01-26T21:09:33.513Z,82.40
2018-01-26T21:12:01.839Z,83.60
2018-01-26T21:14:29.413Z,83.60
2018-01-26T21:16:56.974Z,83.90
2018-01-26T21:19:24.537Z,83.40
2018-01-26T21:21:52.123Z,82.90
2018-01-26T21:24:19.681Z,83.20
2018-01-26T21:26:48.052Z,82.70
2018-01-26T21:29:15.591Z,82.70
2018-01-26T21:31:43.152Z,82.70
2018-01-26T21:34:10.713Z,83.10
2018-01-26T21:36:38.275Z,83.40
2018-01-26T21:39:07.775Z,83.10
2018-01-26T21:41:35.330Z,82.90
2018-01-26T21:44:02.941Z,84.20
2018-01-26T21:46:31.339Z,83.50
2018-01-26T21:48:58.919Z,83.50
2018-01-26T21:51:26.474Z,82.70
2018-01-26T21:53:54.026Z,83.20
2018-01-26T21:56:21.612Z,82.90
2018-01-26T21:58:49.198Z,83.20
2018-01-26T22:01:17.537Z,84.10
2018-01-26T22:03:45.070Z,84.10
2018-01-26T22:06:18.277Z,83.50
2018-01-26T22:08:45.838Z,83.80
2018-01-26T22:11:13.404Z,83.50
2018-01-26T22:13:40.957Z,83.80
2018-01-26T22:16:08.513Z,83.20
2018-01-26T22:18:36.082Z,83.00
2018-01-26T22:21:03.656Z,84.00
2018-01-26T22:23:31.235Z,84.70
2018-01-26T22:25:58.780Z,85.50
2018-01-26T22:28:26.335Z,85.90
2018-01-26T22:30:53.889Z,84.00
2018-01-26T22:33:21.465Z,85.10
2018-01-26T22:35:49.015Z,83.90
2018-01-26T22:38:16.571Z,83.30
2018-01-26T22:40:44.121Z,83.70
2018-01-26T22:43:11.707Z,85.00
2018-01-26T22:45:39.279Z,85.50
2018-01-26T22:48:07.623Z,83.40
2018-01-26T22:50:35.188Z,83.40
2018-01-26T22:53:02.741Z,83.60
2018-01-26T22:55:30.319Z,83.40
2018-01-26T22:57:57.902Z,83.40
2018-01-26T23:00:25.492Z,85.10
2018-01-26T23:02:53.063Z,86.00
2018-01-26T23:05:20.645Z,85.80
2018-01-26T23:07:48.196Z,85.30
2018-01-26T23:10:15.771Z,84.40
2018-01-26T23:12:43.345Z,83.30
2018-01-26T23:15:10.904Z,84.20
2018-01-26T23:17:38.486Z,84.90
2018-01-26T23:20:06.805Z,85.70
2018-01-26T23:22:34.391Z,85.70
2018-01-26T23:25:01.935Z,84.10
2018-01-26T23:27:29.516Z,83.50
2018-01-26T23:29:57.868Z,84.10
2018-01-26T23:32:25.466Z,85.00
2018-01-26T23:34:53.051Z,84.90
2018-01-26T23:37:21.355Z,84.10
2018-01-26T23:39:48.934Z,84.10
2018-01-26T23:42:16.503Z,84.50
2018-01-26T23:44:44.095Z,84.20
2018-01-26T23:47:12.418Z,85.50
2018-01-26T23:49:39.993Z,85.30
2018-01-26T23:52:07.553Z,85.70
2018-01-26T23:54:35.143Z,85.70
2018-01-26T23:57:02.703Z,85.20
2018-01-26T23:59:30.257Z,85.00
